Airport View

Enter AWOS ICAO identifier for current METAR.

ex. KFNL

K4BM 210008Z AUTO 22011G21KT 180V240 10SM CLR 12/M10 A3023 RMK AO2

21 Sep 2019 00:27

Frequency: 132.3

Phone: 303-512-4418

Other Area AWOS: KAEJ - KAFF - K7BM - KLXV

TAF KCOS 202334Z 2100/2124 20014G24KT P6SM FEW110 FM210200 24012KT P6SM SKC FM210500 33007KT P6SM SKC FM211500 13008KT P6SM SKC FM211900 16012KT P6SM FEW100